createdAt,value
2019-03-22T00:00:13.226Z,3.80
2019-03-22T00:02:41.515Z,3.80
2019-03-22T00:05:09.882Z,3.70
2019-03-22T00:07:38.345Z,3.60
2019-03-22T00:10:06.701Z,3.50
2019-03-22T00:12:35.046Z,3.40
2019-03-22T00:15:05.464Z,3.40
2019-03-22T00:17:33.865Z,3.40
2019-03-22T00:20:02.281Z,3.30
2019-03-22T00:22:30.751Z,3.30
2019-03-22T00:24:59.101Z,3.20
2019-03-22T00:27:28.078Z,3.00
2019-03-22T00:29:56.557Z,2.90
2019-03-22T00:32:25.090Z,2.90
2019-03-22T00:34:53.408Z,2.80
2019-03-22T00:37:21.814Z,2.80
2019-03-22T00:39:50.406Z,2.80
2019-03-22T00:42:18.816Z,2.70
2019-03-22T00:44:50.162Z,2.70
2019-03-22T00:47:18.492Z,2.60
2019-03-22T00:49:47.114Z,2.50
2019-03-22T00:52:15.511Z,2.50
2019-03-22T00:54:43.920Z,2.40
2019-03-22T00:57:12.277Z,2.40
2019-03-22T00:59:40.735Z,2.30
2019-03-22T01:02:09.104Z,2.20
2019-03-22T01:04:37.561Z,2.20
2019-03-22T01:07:05.946Z,2.10
2019-03-22T01:09:34.379Z,2.10
2019-03-22T01:12:02.687Z,2.10
2019-03-22T01:14:31.062Z,2.10
2019-03-22T01:16:59.354Z,2.10
2019-03-22T01:19:27.746Z,2.10
2019-03-22T01:21:58.763Z,2.10
2019-03-22T01:24:27.229Z,2.00
2019-03-22T01:26:55.604Z,2.00
2019-03-22T01:29:24.954Z,1.90
2019-03-22T01:31:53.405Z,1.90
2019-03-22T01:34:21.853Z,2.00
2019-03-22T01:36:50.239Z,1.90
2019-03-22T01:39:18.661Z,1.80
2019-03-22T01:41:47.089Z,1.80
2019-03-22T01:44:15.399Z,1.80
2019-03-22T01:46:44.033Z,1.70
2019-03-22T01:49:12.415Z,1.50
2019-03-22T01:51:40.867Z,1.60
2019-03-22T01:54:09.266Z,1.50
2019-03-22T01:56:37.694Z,1.50
2019-03-22T01:59:06.085Z,1.50
2019-03-22T02:01:34.585Z,1.40
2019-03-22T02:04:03.039Z,1.30
2019-03-22T02:06:31.379Z,1.20
2019-03-22T02:08:59.846Z,1.20
2019-03-22T02:11:28.225Z,1.10
2019-03-22T02:13:56.540Z,1.10
2019-03-22T02:16:24.855Z,1.00
2019-03-22T02:18:53.269Z,1.00
2019-03-22T02:21:21.600Z,0.90
2019-03-22T02:23:52.089Z,1.00
2019-03-22T02:26:22.852Z,1.10
2019-03-22T02:28:51.260Z,1.10
2019-03-22T02:31:19.722Z,1.00
2019-03-22T02:33:48.318Z,1.00
2019-03-22T02:36:18.367Z,1.00
2019-03-22T02:38:46.753Z,0.90
2019-03-22T02:41:15.155Z,0.90
2019-03-22T02:43:43.539Z,0.80
2019-03-22T02:46:12.031Z,0.70
2019-03-22T02:48:41.002Z,0.60
2019-03-22T02:51:09.451Z,0.50
2019-03-22T02:53:37.810Z,0.60
2019-03-22T02:56:06.451Z,0.60
2019-03-22T02:58:34.966Z,0.70
2019-03-22T03:01:03.442Z,0.70
2019-03-22T03:03:31.835Z,0.60
2019-03-22T03:06:00.199Z,0.60
2019-03-22T03:08:30.218Z,0.50
2019-03-22T03:10:58.613Z,0.50
2019-03-22T03:13:27.052Z,0.50
2019-03-22T03:15:55.410Z,0.40
2019-03-22T03:18:23.838Z,0.40
2019-03-22T03:20:52.180Z,0.30
2019-03-22T03:23:20.562Z,0.30
2019-03-22T03:25:48.940Z,0.30
2019-03-22T03:28:18.054Z,0.10
2019-03-22T03:30:46.415Z,0.10
2019-03-22T03:33:14.853Z,0.10
2019-03-22T03:35:43.320Z,0.00
2019-03-22T03:38:11.683Z,0.00
2019-03-22T03:40:40.143Z,0.10
2019-03-22T03:43:08.498Z,0.10
2019-03-22T03:45:37.145Z,0.00
2019-03-22T03:48:10.076Z,-0.10
2019-03-22T03:50:39.145Z,0.00
2019-03-22T03:53:07.516Z,0.00
2019-03-22T03:55:36.000Z,0.10
2019-03-22T03:58:04.718Z,0.00
2019-03-22T04:00:33.159Z,-0.10
2019-03-22T04:03:01.543Z,0.00
2019-03-22T04:05:29.913Z,-0.10
2019-03-22T04:07:59.022Z,-0.10
2019-03-22T04:10:27.461Z,-0.10
2019-03-22T04:12:56.344Z,-0.10
2019-03-22T04:15:24.853Z,-0.20
2019-03-22T04:17:53.317Z,-0.30
2019-03-22T04:20:21.754Z,-0.50
2019-03-22T04:22:50.124Z,-0.50
2019-03-22T04:25:18.588Z,-0.50
2019-03-22T04:27:46.953Z,-0.50
2019-03-22T04:30:15.371Z,-0.60
2019-03-22T04:32:43.815Z,-0.60
2019-03-22T04:35:12.256Z,-0.60
2019-03-22T04:37:40.715Z,-0.60
2019-03-22T04:40:26.154Z,-0.50
2019-03-22T04:42:54.528Z,-0.60
2019-03-22T04:45:23.364Z,-0.70
2019-03-22T04:47:55.188Z,-0.80
2019-03-22T04:50:23.587Z,-0.80
2019-03-22T04:52:51.997Z,-0.90
2019-03-22T04:55:20.745Z,-1.00
2019-03-22T04:57:49.112Z,-1.00
2019-03-22T05:00:17.617Z,-0.90
2019-03-22T05:02:46.041Z,-0.80
2019-03-22T05:05:14.407Z,-0.80
2019-03-22T05:07:42.891Z,-0.90
2019-03-22T05:10:13.029Z,-0.90
2019-03-22T05:12:41.374Z,-1.00
2019-03-22T05:15:10.211Z,-1.00
2019-03-22T05:17:38.622Z,-1.00
2019-03-22T05:20:07.140Z,-0.90
2019-03-22T05:22:35.606Z,-0.70
2019-03-22T05:25:03.987Z,-0.50
2019-03-22T05:27:32.394Z,-0.60
2019-03-22T05:30:00.798Z,-0.60
2019-03-22T05:32:29.174Z,-0.60
2019-03-22T05:34:57.598Z,-0.70
2019-03-22T05:37:25.932Z,-0.80
2019-03-22T05:39:54.399Z,-0.90
2019-03-22T05:42:22.798Z,-0.80
2019-03-22T05:44:51.187Z,-0.70
2019-03-22T05:47:19.566Z,-0.70
2019-03-22T05:49:50.786Z,-0.60
2019-03-22T05:52:19.173Z,-0.60
2019-03-22T05:54:47.659Z,-0.70
2019-03-22T05:57:16.041Z,-0.60
2019-03-22T05:59:44.414Z,-0.60
2019-03-22T06:02:12.794Z,-0.60
2019-03-22T06:04:41.295Z,-0.50
2019-03-22T06:07:09.717Z,-0.50
2019-03-22T06:09:38.185Z,-0.30
2019-03-22T06:12:06.545Z,-0.20
2019-03-22T06:14:34.843Z,-0.20
2019-03-22T06:17:03.254Z,-0.10
2019-03-22T06:19:31.686Z,0.00
2019-03-22T06:22:00.047Z,0.00
2019-03-22T06:24:28.434Z,0.10
2019-03-22T06:26:56.826Z,0.20
2019-03-22T06:29:25.337Z,0.30
2019-03-22T06:31:53.706Z,0.40
2019-03-22T06:34:22.084Z,0.40
2019-03-22T06:36:50.583Z,0.50
2019-03-22T06:39:19.043Z,0.60
2019-03-22T06:41:47.451Z,0.80
2019-03-22T06:44:15.860Z,0.90
2019-03-22T06:46:44.232Z,1.00
2019-03-22T06:49:12.571Z,1.00
2019-03-22T06:51:40.943Z,1.10
2019-03-22T06:54:09.425Z,1.20
2019-03-22T06:56:37.945Z,1.30
2019-03-22T06:59:06.333Z,1.40
2019-03-22T07:01:34.745Z,1.50
2019-03-22T07:04:03.197Z,1.60
2019-03-22T07:06:31.585Z,1.80
2019-03-22T07:08:59.941Z,2.00
2019-03-22T07:11:28.245Z,2.10
2019-03-22T07:13:56.613Z,2.30
2019-03-22T07:16:24.930Z,2.40
2019-03-22T07:18:53.348Z,2.50
2019-03-22T07:21:21.730Z,2.70
2019-03-22T07:23:50.116Z,2.80
2019-03-22T07:26:18.494Z,2.90
2019-03-22T07:28:46.859Z,3.10
2019-03-22T07:31:15.266Z,3.20
2019-03-22T07:33:43.630Z,3.30
2019-03-22T07:36:12.139Z,3.60
2019-03-22T07:38:40.694Z,3.70
2019-03-22T07:41:09.183Z,4.10
2019-03-22T07:43:37.493Z,4.50
2019-03-22T07:46:05.803Z,4.90
2019-03-22T07:48:34.259Z,5.10
2019-03-22T07:51:02.683Z,5.40
2019-03-22T07:53:31.893Z,5.50
2019-03-22T07:56:00.262Z,5.70
2019-03-22T07:58:28.641Z,5.90
2019-03-22T08:00:57.040Z,6.10
2019-03-22T08:03:25.421Z,6.20
2019-03-22T08:05:53.785Z,6.40
2019-03-22T08:08:22.242Z,6.40
2019-03-22T08:10:50.702Z,6.50
2019-03-22T08:13:19.105Z,6.50
2019-03-22T08:15:47.472Z,6.40
2019-03-22T08:18:15.840Z,6.50
2019-03-22T08:20:44.238Z,6.40
2019-03-22T08:23:19.993Z,6.40
2019-03-22T08:25:48.446Z,6.30
2019-03-22T08:28:16.877Z,6.40
2019-03-22T08:30:45.222Z,6.60
2019-03-22T08:33:13.675Z,6.80
2019-03-22T08:35:42.066Z,6.90
2019-03-22T08:38:10.438Z,6.90
2019-03-22T08:40:38.800Z,7.00
2019-03-22T08:43:07.137Z,7.20
2019-03-22T08:45:35.489Z,7.30
2019-03-22T08:48:03.971Z,7.40
2019-03-22T08:50:32.376Z,7.50
2019-03-22T08:53:00.698Z,7.60
2019-03-22T08:55:29.108Z,7.70
2019-03-22T08:57:57.546Z,7.60
2019-03-22T09:00:38.319Z,7.70
2019-03-22T09:02:56.146Z,7.70
2019-03-22T09:05:24.549Z,7.80
2019-03-22T09:07:52.930Z,8.00
2019-03-22T09:10:21.406Z,8.10
2019-03-22T09:12:49.794Z,8.10
2019-03-22T09:15:18.143Z,8.20
2019-03-22T09:17:46.542Z,8.40
2019-03-22T09:20:15.000Z,8.40
2019-03-22T09:22:43.354Z,8.60
2019-03-22T09:25:11.766Z,8.60
2019-03-22T09:27:40.191Z,8.70
2019-03-22T09:30:13.254Z,8.80
2019-03-22T09:32:41.620Z,9.00
2019-03-22T09:35:10.049Z,9.10
2019-03-22T09:37:38.413Z,9.30
2019-03-22T09:40:08.388Z,9.40
2019-03-22T09:42:37.050Z,9.40
2019-03-22T09:45:06.779Z,9.60
2019-03-22T09:47:35.212Z,9.60
2019-03-22T09:50:08.627Z,9.80
2019-03-22T09:52:37.123Z,10.20
2019-03-22T09:55:13.286Z,10.40
2019-03-22T09:57:35.705Z,10.60
2019-03-22T10:00:09.065Z,10.80
2019-03-22T10:02:37.528Z,10.90
2019-03-22T10:05:06.370Z,10.90
2019-03-22T10:07:34.792Z,10.80
2019-03-22T10:10:04.299Z,10.80
2019-03-22T10:12:32.665Z,10.80
2019-03-22T10:15:01.055Z,10.70
2019-03-22T10:17:29.512Z,10.70
2019-03-22T10:19:57.962Z,10.90
2019-03-22T10:22:26.325Z,11.10
2019-03-22T10:24:54.697Z,11.30
2019-03-22T10:27:23.074Z,11.40
2019-03-22T10:29:52.074Z,11.30
2019-03-22T10:32:23.612Z,11.40
2019-03-22T10:34:50.502Z,11.60
2019-03-22T10:37:18.931Z,11.90
2019-03-22T10:39:47.289Z,12.10
2019-03-22T10:42:15.708Z,12.60
2019-03-22T10:44:44.082Z,13.00
2019-03-22T10:47:12.435Z,14.20
2019-03-22T10:49:42.065Z,15.50
2019-03-22T10:52:10.819Z,16.40
2019-03-22T10:54:39.254Z,17.10
2019-03-22T10:57:07.642Z,17.30
2019-03-22T10:59:36.050Z,17.40
2019-03-22T11:02:07.570Z,17.40
2019-03-22T11:04:34.520Z,17.20
2019-03-22T11:07:02.915Z,17.10
2019-03-22T11:09:31.904Z,17.40
2019-03-22T11:12:00.300Z,18.00
2019-03-22T11:14:28.732Z,18.30
2019-03-22T11:16:57.134Z,17.50
2019-03-22T11:19:25.544Z,17.20
2019-03-22T11:21:53.944Z,17.20
2019-03-22T11:24:22.392Z,16.80
2019-03-22T11:26:50.866Z,16.50
2019-03-22T11:29:19.260Z,16.70
2019-03-22T11:31:47.805Z,16.40
2019-03-22T11:34:16.332Z,15.80
2019-03-22T11:36:44.709Z,15.50
2019-03-22T11:39:15.931Z,15.00
2019-03-22T11:41:43.377Z,14.90
2019-03-22T11:44:11.849Z,14.70
2019-03-22T11:46:43.021Z,14.30
2019-03-22T11:49:11.410Z,14.00
2019-03-22T11:51:40.347Z,14.00
2019-03-22T11:54:08.839Z,13.90
2019-03-22T11:56:37.199Z,13.90
2019-03-22T11:59:05.594Z,13.80
2019-03-22T12:01:33.950Z,14.00
2019-03-22T12:04:02.261Z,14.20
2019-03-22T12:06:30.728Z,14.10
2019-03-22T12:08:59.102Z,14.30
2019-03-22T12:11:27.574Z,14.30
2019-03-22T12:13:55.974Z,14.10
2019-03-22T12:16:25.064Z,14.30
2019-03-22T12:18:53.498Z,14.20
2019-03-22T12:21:21.999Z,14.50
2019-03-22T12:23:58.136Z,14.60
2019-03-22T12:26:26.507Z,14.70
2019-03-22T12:28:54.974Z,14.70
2019-03-22T12:31:24.422Z,14.90
2019-03-22T12:33:52.712Z,15.10
2019-03-22T12:36:21.280Z,14.90
2019-03-22T12:38:49.667Z,15.10
2019-03-22T12:41:18.049Z,15.40
2019-03-22T12:43:46.534Z,15.60
2019-03-22T12:46:14.917Z,15.20
2019-03-22T12:48:43.327Z,15.30
2019-03-22T12:51:11.716Z,15.70
2019-03-22T12:53:40.134Z,15.70
2019-03-22T12:56:08.538Z,15.70
2019-03-22T12:58:37.045Z,16.20
2019-03-22T13:01:05.432Z,16.40
2019-03-22T13:03:33.837Z,17.30
2019-03-22T13:06:05.484Z,17.60
2019-03-22T13:08:33.943Z,18.20
2019-03-22T13:11:02.340Z,17.90
2019-03-22T13:13:30.768Z,18.10
2019-03-22T13:15:59.186Z,17.60
2019-03-22T13:18:27.567Z,17.60
2019-03-22T13:20:56.037Z,17.80
2019-03-22T13:23:24.504Z,18.30
2019-03-22T13:25:52.981Z,18.60
2019-03-22T13:28:21.356Z,19.00
2019-03-22T13:30:49.750Z,19.50
2019-03-22T13:33:18.173Z,19.70
2019-03-22T13:35:46.577Z,19.10
2019-03-22T13:38:17.041Z,19.20
2019-03-22T13:40:46.277Z,19.50
2019-03-22T13:43:14.721Z,19.70
2019-03-22T13:45:43.117Z,19.30
2019-03-22T13:48:11.548Z,19.40
2019-03-22T13:50:40.173Z,19.70
2019-03-22T13:53:08.571Z,19.40
2019-03-22T13:55:36.984Z,19.20
2019-03-22T13:58:05.396Z,19.10
2019-03-22T14:00:33.830Z,19.10
2019-03-22T14:03:03.079Z,18.60
2019-03-22T14:05:31.824Z,18.60
2019-03-22T14:08:00.224Z,18.80
2019-03-22T14:10:32.552Z,19.00
2019-03-22T14:13:01.983Z,18.90
2019-03-22T14:15:30.390Z,19.00
2019-03-22T14:17:58.764Z,19.30
2019-03-22T14:20:27.184Z,18.50
2019-03-22T14:22:55.632Z,17.90
2019-03-22T14:25:24.934Z,17.20
2019-03-22T14:27:53.713Z,16.80
2019-03-22T14:30:22.089Z,16.40
2019-03-22T14:32:50.469Z,15.90
2019-03-22T14:35:18.905Z,15.30
2019-03-22T14:37:47.342Z,15.10
2019-03-22T14:40:15.961Z,16.00
2019-03-22T14:42:44.321Z,16.50
2019-03-22T14:45:12.771Z,17.10
2019-03-22T14:47:41.174Z,17.40
2019-03-22T14:50:09.617Z,17.30
2019-03-22T14:52:38.072Z,17.40
2019-03-22T14:55:06.528Z,17.10
2019-03-22T14:57:35.026Z,17.00
2019-03-22T15:00:05.274Z,17.10
2019-03-22T15:02:33.683Z,17.20
2019-03-22T15:05:03.031Z,17.20
2019-03-22T15:07:31.444Z,17.20
2019-03-22T15:09:59.832Z,17.00
2019-03-22T15:12:28.345Z,16.60
2019-03-22T15:14:58.399Z,16.00
2019-03-22T15:17:44.731Z,15.50
2019-03-22T15:20:15.721Z,15.20
2019-03-22T15:22:58.073Z,15.00
2019-03-22T15:25:37.582Z,15.00
2019-03-22T15:28:16.585Z,14.90
2019-03-22T15:31:02.849Z,14.70
2019-03-22T15:33:34.585Z,14.50
2019-03-22T15:36:22.634Z,14.30
2019-03-22T15:38:52.733Z,14.20
2019-03-22T15:41:21.133Z,13.90
2019-03-22T15:43:49.534Z,14.40
2019-03-22T15:46:17.934Z,15.40
2019-03-22T15:48:46.336Z,16.20
2019-03-22T15:51:14.714Z,16.10
2019-03-22T15:53:43.150Z,16.10
2019-03-22T15:56:11.544Z,16.30
2019-03-22T15:58:39.990Z,16.90
2019-03-22T16:01:08.372Z,17.10
2019-03-22T16:03:44.107Z,16.60
2019-03-22T16:06:06.862Z,16.60
2019-03-22T16:08:35.256Z,16.40
2019-03-22T16:11:04.230Z,16.80
2019-03-22T16:13:32.666Z,16.30
2019-03-22T16:16:01.102Z,16.20
2019-03-22T16:18:29.499Z,16.10
2019-03-22T16:21:00.162Z,15.60
2019-03-22T16:23:28.044Z,15.80
2019-03-22T16:25:56.420Z,15.80
2019-03-22T16:28:24.921Z,15.90
2019-03-22T16:30:53.325Z,15.60
2019-03-22T16:33:22.219Z,15.30
2019-03-22T16:35:50.776Z,15.50
2019-03-22T16:38:19.147Z,15.30
2019-03-22T16:40:47.559Z,15.00
2019-03-22T16:43:15.929Z,14.80
2019-03-22T16:45:44.305Z,14.30
2019-03-22T16:48:12.705Z,14.10
2019-03-22T16:50:41.200Z,14.00
2019-03-22T16:53:09.591Z,13.70
2019-03-22T16:55:38.063Z,13.40
2019-03-22T16:58:06.402Z,13.20
2019-03-22T17:00:34.698Z,13.00
2019-03-22T17:03:03.066Z,12.70
2019-03-22T17:05:31.452Z,12.50
2019-03-22T17:07:59.781Z,12.40
2019-03-22T17:10:28.146Z,12.20
2019-03-22T17:13:15.976Z,12.10
2019-03-22T17:15:44.374Z,12.00
2019-03-22T17:18:12.739Z,11.90
2019-03-22T17:20:41.136Z,11.70
2019-03-22T17:23:10.138Z,11.70
2019-03-22T17:25:38.569Z,11.60
2019-03-22T17:28:06.934Z,11.40
2019-03-22T17:30:35.338Z,11.40
2019-03-22T17:33:03.785Z,11.30
2019-03-22T17:35:32.146Z,11.30
2019-03-22T17:38:00.838Z,11.20
2019-03-22T17:40:29.296Z,11.10
2019-03-22T17:42:57.797Z,10.90
2019-03-22T17:45:26.201Z,10.80
2019-03-22T17:50:21.154Z,10.70
2019-03-22T17:52:49.524Z,10.70
2019-03-22T17:55:17.907Z,10.50
2019-03-22T17:57:46.355Z,10.60
2019-03-22T18:00:18.607Z,10.50
2019-03-22T18:02:47.181Z,10.30
2019-03-22T18:05:15.549Z,10.30
2019-03-22T18:07:43.942Z,10.20
2019-03-22T18:10:12.473Z,10.20
2019-03-22T18:12:40.869Z,10.10
2019-03-22T18:15:11.511Z,10.10
2019-03-22T18:17:39.918Z,10.00
2019-03-22T18:20:10.708Z,10.00
2019-03-22T18:22:39.112Z,10.00
2019-03-22T18:25:09.498Z,10.00
2019-03-22T18:27:37.933Z,10.00
2019-03-22T18:30:09.090Z,9.90
2019-03-22T18:32:37.534Z,9.90
2019-03-22T18:35:06.847Z,9.80
2019-03-22T18:37:35.285Z,9.70
2019-03-22T18:40:05.021Z,9.70
2019-03-22T18:42:33.337Z,9.60
2019-03-22T18:45:01.771Z,9.50
2019-03-22T18:47:30.133Z,9.50
2019-03-22T18:49:58.519Z,9.40
2019-03-22T18:52:26.952Z,9.40
2019-03-22T18:54:55.337Z,9.30
2019-03-22T18:57:23.701Z,9.30
2019-03-22T18:59:52.010Z,9.30
2019-03-22T19:02:20.471Z,9.30
2019-03-22T19:04:48.873Z,9.20
2019-03-22T19:07:17.231Z,9.20
2019-03-22T19:09:46.186Z,9.20
2019-03-22T19:12:14.555Z,9.20
2019-03-22T19:14:43.010Z,9.10
2019-03-22T19:17:11.306Z,9.10
2019-03-22T19:19:39.610Z,9.10
2019-03-22T19:22:08.064Z,9.10
2019-03-22T19:24:36.402Z,9.00
2019-03-22T19:27:05.390Z,9.00
2019-03-22T19:29:33.786Z,8.90
2019-03-22T19:32:02.229Z,8.90
2019-03-22T19:34:30.619Z,8.90
2019-03-22T19:36:58.980Z,8.80
2019-03-22T19:39:27.299Z,8.70
2019-03-22T19:41:55.754Z,8.70
2019-03-22T19:44:24.137Z,8.70
2019-03-22T19:46:52.743Z,8.60
2019-03-22T19:49:21.189Z,8.50
2019-03-22T19:51:49.563Z,8.60
2019-03-22T19:54:17.953Z,8.60
2019-03-22T19:56:46.397Z,8.50
2019-03-22T19:59:14.816Z,8.50
2019-03-22T20:01:43.213Z,8.60
2019-03-22T20:04:11.606Z,8.60
2019-03-22T20:06:40.890Z,8.60
2019-03-22T20:09:10.159Z,8.60
2019-03-22T20:11:40.183Z,8.60
2019-03-22T20:14:08.684Z,8.60
2019-03-22T20:16:37.114Z,8.60
2019-03-22T20:19:05.536Z,8.60
2019-03-22T20:21:33.853Z,8.60
2019-03-22T20:24:02.246Z,8.60
2019-03-22T20:26:30.610Z,8.50
2019-03-22T20:28:59.174Z,8.50
2019-03-22T20:31:27.608Z,8.50
2019-03-22T20:33:55.999Z,8.40
2019-03-22T20:36:26.293Z,8.40
2019-03-22T20:38:54.387Z,8.40
2019-03-22T20:41:22.843Z,8.30
2019-03-22T20:43:51.221Z,8.10
2019-03-22T20:46:19.658Z,8.10
2019-03-22T20:48:48.041Z,8.10
2019-03-22T20:51:16.501Z,8.10
2019-03-22T20:53:44.937Z,8.00
2019-03-22T20:56:13.334Z,8.10
2019-03-22T20:58:43.734Z,8.00
2019-03-22T21:01:11.790Z,7.90
2019-03-22T21:03:40.174Z,7.80
2019-03-22T21:06:08.629Z,7.80
2019-03-22T21:08:37.237Z,7.80
2019-03-22T21:11:05.652Z,7.70
2019-03-22T21:13:34.127Z,7.60
2019-03-22T21:16:02.484Z,7.60
2019-03-22T21:18:30.802Z,7.60
2019-03-22T21:20:59.192Z,7.60
2019-03-22T21:23:36.052Z,7.60
2019-03-22T21:25:57.674Z,7.60
2019-03-22T21:28:25.987Z,7.60
2019-03-22T21:30:54.417Z,7.60
2019-03-22T21:33:22.791Z,7.40
2019-03-22T21:35:51.133Z,7.40
2019-03-22T21:38:19.517Z,7.40
2019-03-22T21:40:47.905Z,7.30
2019-03-22T21:43:16.309Z,7.20
2019-03-22T21:45:44.729Z,7.20
2019-03-22T21:48:13.187Z,7.20
2019-03-22T21:50:41.567Z,7.20
2019-03-22T21:53:09.995Z,7.10
2019-03-22T21:55:38.345Z,7.10
2019-03-22T21:58:06.676Z,7.10
2019-03-22T22:00:35.063Z,7.00
2019-03-22T22:03:03.443Z,7.00
2019-03-22T22:05:32.145Z,6.90
2019-03-22T22:08:00.621Z,6.90
2019-03-22T22:10:29.030Z,6.90
2019-03-22T22:12:57.406Z,6.80
2019-03-22T22:15:25.781Z,6.80
2019-03-22T22:17:54.198Z,6.80
2019-03-22T22:20:28.882Z,6.80
2019-03-22T22:22:52.686Z,6.80
2019-03-22T22:25:21.136Z,6.80
2019-03-22T22:27:49.680Z,6.80
2019-03-22T22:30:18.207Z,6.80
2019-03-22T22:32:46.629Z,6.90
2019-03-22T22:35:14.989Z,6.80
2019-03-22T22:37:43.278Z,6.80
2019-03-22T22:40:12.442Z,6.80
2019-03-22T22:42:40.857Z,6.90
2019-03-22T22:45:12.965Z,6.80
2019-03-22T22:47:41.403Z,6.70
2019-03-22T22:50:12.957Z,6.80
2019-03-22T22:52:41.324Z,6.90
2019-03-22T22:55:09.785Z,6.90
2019-03-22T22:57:38.279Z,6.80
2019-03-22T23:00:14.320Z,6.80
2019-03-22T23:02:43.633Z,6.90
2019-03-22T23:05:11.992Z,6.90
2019-03-22T23:07:40.595Z,6.90
2019-03-22T23:10:09.291Z,6.90
2019-03-22T23:12:38.362Z,6.90
2019-03-22T23:15:07.464Z,7.00
2019-03-22T23:17:36.057Z,7.00
2019-03-22T23:20:06.240Z,7.00
2019-03-22T23:22:34.690Z,7.00
2019-03-22T23:25:02.999Z,7.00
2019-03-22T23:27:32.025Z,7.00
2019-03-22T23:30:00.432Z,7.00
2019-03-22T23:32:28.768Z,7.10
2019-03-22T23:34:59.170Z,7.10
2019-03-22T23:37:27.961Z,7.10
2019-03-22T23:39:56.349Z,7.10
2019-03-22T23:42:24.717Z,7.10
2019-03-22T23:44:53.181Z,7.10
2019-03-22T23:47:21.533Z,7.10
2019-03-22T23:49:49.945Z,7.10
2019-03-22T23:52:18.325Z,7.10
2019-03-22T23:54:46.754Z,7.10
2019-03-22T23:57:15.131Z,7.10
2019-03-22T23:59:43.589Z,7.10
